Time;durP1;ratioP1;P1;durP2;ratioP2;P2;SDS_P1;SDS_P2;PMS_P1;PMS_P2;Temp;Humidity;BMP_temperature;BMP_pressure;BME280_temperature;BME280_humidity;BME280_pressure;Samples;Min_cycle;Max_cycle;Signal;HPM_P1;HPM_P2
2023/06/01 00:02:23;;;;;;;10.35;5.60;;;;;;;8.20;83.46;98924.47;4814612;29;20065;-75
2023/06/01 00:04:50;;;;;;;10.65;5.53;;;;;;;8.19;83.03;98926.25;4805978;29;20079;-74
2023/06/01 00:07:40;;;;;;;9.70;4.65;;;;;;;8.17;83.31;98937.94;4807797;29;20049;-72
2023/06/01 00:10:07;;;;;;;6.93;4.47;;;;;;;8.18;83.35;98921.06;4820679;29;20045;-73
2023/06/01 00:12:32;;;;;;;6.95;4.45;;;;;;;8.16;82.80;98923.81;4838680;29;20041;-77
2023/06/01 00:14:58;;;;;;;8.48;4.47;;;;;;;8.15;82.57;98916.81;4811328;29;20053;-73
2023/06/01 00:17:25;;;;;;;10.43;4.72;;;;;;;8.14;82.63;98915.13;4827334;29;20046;-72
2023/06/01 00:19:52;;;;;;;11.93;4.82;;;;;;;8.13;83.02;98918.72;4826299;29;20049;-71
2023/06/01 00:22:19;;;;;;;9.40;4.95;;;;;;;8.11;82.64;98920.69;4825055;29;20543;-70
2023/06/01 00:24:45;;;;;;;9.02;4.57;;;;;;;8.10;82.93;98907.50;4826478;29;20056;-69
2023/06/01 00:27:10;;;;;;;8.57;4.75;;;;;;;8.07;82.46;98913.03;4827083;29;20416;-71
2023/06/01 00:30:25;;;;;;;12.27;4.97;;;;;;;8.13;82.08;98915.22;4826748;29;20049;-71
2023/06/01 00:32:53;;;;;;;7.05;4.22;;;;;;;8.06;82.59;98917.50;4841760;29;20052;-69
2023/06/01 00:35:20;;;;;;;6.72;4.60;;;;;;;8.05;82.43;98926.41;4826475;29;20414;-69
2023/06/01 00:37:46;;;;;;;8.55;4.55;;;;;;;8.04;82.90;98914.09;4826300;29;20057;-74
2023/06/01 00:40:13;;;;;;;8.35;4.65;;;;;;;8.03;82.85;98904.44;4823978;29;20049;-70
2023/06/01 00:42:38;;;;;;;6.93;4.85;;;;;;;8.01;82.35;98909.84;4822141;29;20045;-76
2023/06/01 00:45:05;;;;;;;8.57;4.53;;;;;;;7.99;82.01;98917.09;4831064;29;20050;-75
2023/06/01 00:47:40;;;;;;;6.93;4.50;;;;;;;8.02;82.42;98895.63;4809255;29;20493;-72
2023/06/01 00:50:35;;;;;;;9.35;4.40;;;;;;;7.99;82.28;98921.56;4808166;29;20054;-76
2023/06/01 00:53:08;;;;;;;6.68;4.20;;;;;;;7.98;82.72;98903.94;4822455;29;20537;-73
2023/06/01 00:55:58;;;;;;;13.93;5.00;;;;;;;8.03;82.12;98897.31;4809656;29;20046;-75
2023/06/01 00:58:27;;;;;;;6.93;3.95;;;;;;;7.96;82.22;98906.69;4821585;29;20398;-74
2023/06/01 01:01:22;;;;;;;8.10;4.13;;;;;;;7.96;82.34;98905.84;4830659;29;20054;-73
2023/06/01 01:03:49;;;;;;;8.18;4.57;;;;;;;7.94;82.41;98913.06;4824915;29;20060;-74
2023/06/01 01:06:48;;;;;;;8.48;3.90;;;;;;;7.99;82.17;98900.34;4807774;29;20049;-73
2023/06/01 01:09:50;;;;;;;7.93;4.35;;;;;;;7.95;81.98;98899.69;4824194;29;20053;-75
2023/06/01 01:15:22;;;;;;;14.30;4.10;;;;;;;7.98;81.92;98903.94;4810548;29;20058;-75
2023/06/01 01:17:54;;;;;;;8.88;4.43;;;;;;;7.94;81.74;98902.47;4813793;29;20049;-72
2023/06/01 01:20:24;;;;;;;7.90;4.75;;;;;;;7.96;81.60;98900.53;4824734;29;20056;-75
2023/06/01 01:23:24;;;;;;;9.38;5.18;;;;;;;7.99;81.78;98895.88;4823624;29;20513;-74
2023/06/01 01:26:22;;;;;;;7.07;4.18;;;;;;;8.00;82.16;98896.72;4821274;29;20053;-71
2023/06/01 01:29:15;;;;;;;8.00;4.15;;;;;;;7.97;81.41;98899.59;4831110;29;20064;-75
2023/06/01 01:31:45;;;;;;;6.80;4.13;;;;;;;7.96;81.76;98896.09;4809095;29;20064;-69
2023/06/01 01:34:12;;;;;;;6.95;4.35;;;;;;;7.95;81.06;98888.22;4824266;29;20058;-69
2023/06/01 01:36:48;;;;;;;7.25;4.38;;;;;;;7.94;81.44;98890.03;4823759;29;20079;-71
2023/06/01 01:39:14;;;;;;;9.73;3.78;;;;;;;7.94;80.53;98882.06;4824400;29;20057;-68
2023/06/01 01:41:41;;;;;;;9.93;4.60;;;;;;;7.94;80.58;98887.38;4823868;29;20528;-70
2023/06/01 01:44:14;;;;;;;9.77;4.50;;;;;;;7.99;81.00;98895.03;4839432;29;20774;-67
2023/06/01 01:46:46;;;;;;;10.55;4.07;;;;;;;7.99;80.82;98890.56;4819015;29;20556;-65
2023/06/01 01:49:25;;;;;;;8.07;3.80;;;;;;;8.06;80.90;98890.94;4825172;29;20512;-66
2023/06/01 01:52:27;;;;;;;7.82;4.65;;;;;;;8.15;80.08;98890.28;4808582;29;20045;-65
2023/06/01 01:54:55;;;;;;;7.30;3.85;;;;;;;8.13;80.61;98886.03;4810267;29;20045;-69
2023/06/01 01:57:23;;;;;;;6.10;3.60;;;;;;;8.17;79.97;98883.03;4824976;29;20045;-65
2023/06/01 01:59:52;;;;;;;9.27;4.13;;;;;;;8.21;80.40;98883.69;4839368;29;20049;-66
2023/06/01 02:02:47;;;;;;;10.15;4.70;;;;;;;8.28;79.46;98884.91;4824380;29;20052;-68
2023/06/01 02:05:15;;;;;;;10.02;4.50;;;;;;;8.31;79.43;98901.50;4805868;29;20494;-67
2023/06/01 02:07:41;;;;;;;6.28;3.88;;;;;;;8.37;79.89;98885.09;4813312;29;20698;-68
2023/06/01 02:10:07;;;;;;;8.20;4.10;;;;;;;8.42;78.70;98890.06;4823661;29;20056;-68
2023/06/01 02:12:33;;;;;;;7.75;4.35;;;;;;;8.47;79.42;98885.25;4823667;29;20049;-70
2023/06/01 02:15:01;;;;;;;6.40;3.97;;;;;;;8.53;78.66;98921.16;4823002;29;20053;-70
2023/06/01 02:17:30;;;;;;;8.15;4.15;;;;;;;8.63;78.67;98891.13;4823647;29;20045;-69
2023/06/01 02:19:55;;;;;;;8.32;4.20;;;;;;;8.67;77.76;98894.41;4838141;29;20520;-66
2023/06/01 02:22:21;;;;;;;5.53;3.80;;;;;;;8.67;78.10;98892.59;4838548;29;20133;-69
2023/06/01 02:24:48;;;;;;;7.10;3.80;;;;;;;8.73;77.44;98918.69;4823393;29;20057;-67
2023/06/01 02:27:17;;;;;;;5.97;4.20;;;;;;;8.83;77.75;98897.56;4823125;29;20421;-70
2023/06/01 02:29:45;;;;;;;13.82;3.92;;;;;;;8.92;77.30;98907.50;4824919;29;20259;-70
2023/06/01 02:32:11;;;;;;;7.53;4.22;;;;;;;9.01;77.06;98896.19;4824633;29;20501;-71
2023/06/01 02:34:38;;;;;;;9.15;3.80;;;;;;;9.07;76.21;98895.69;4821247;29;20494;-72
2023/06/01 02:37:30;;;;;;;6.78;3.90;;;;;;;9.21;76.75;98913.25;4815819;29;20057;-71
2023/06/01 02:39:56;;;;;;;4.85;3.22;;;;;;;9.29;76.23;98905.50;4810196;29;20526;-71
2023/06/01 02:42:21;;;;;;;5.82;3.95;;;;;;;9.40;75.77;98902.00;4808088;29;20422;-70
2023/06/01 02:44:47;;;;;;;4.28;3.35;;;;;;;9.50;74.87;98918.94;4817043;29;20046;-72
2023/06/01 02:47:16;;;;;;;8.15;3.78;;;;;;;9.54;74.97;98920.41;4820589;29;20409;-69
2023/06/01 02:49:43;;;;;;;7.30;3.40;;;;;;;9.62;74.28;98890.53;4806264;29;20061;-71
2023/06/01 02:52:09;;;;;;;6.80;4.15;;;;;;;9.73;74.58;98904.66;4807672;29;20060;-71
2023/06/01 02:54:39;;;;;;;8.25;4.22;;;;;;;9.82;74.14;98903.94;4838247;29;20413;-71
2023/06/01 02:57:56;;;;;;;9.73;4.13;;;;;;;10.04;73.42;98919.06;4835655;29;20064;-71
2023/06/01 03:00:23;;;;;;;7.43;3.65;;;;;;;10.04;73.19;98939.50;4822921;29;20517;-70
2023/06/01 03:02:48;;;;;;;7.93;3.38;;;;;;;10.10;72.95;98909.72;4824373;29;20053;-71
2023/06/01 03:05:21;;;;;;;7.38;3.50;;;;;;;10.17;72.73;98919.72;4816762;29;20041;-67
2023/06/01 03:07:59;;;;;;;6.22;3.90;;;;;;;10.28;72.31;98932.19;4821036;29;20054;-69
2023/06/01 03:10:25;;;;;;;7.63;3.78;;;;;;;10.41;71.77;98910.72;4819834;29;20132;-71
2023/06/01 03:13:17;;;;;;;7.22;3.53;;;;;;;10.55;71.78;98919.28;4814052;29;20053;-76
2023/06/01 03:15:50;;;;;;;6.00;3.65;;;;;;;10.63;71.10;98904.47;4818146;29;20045;-78
2023/06/01 03:18:21;;;;;;;8.93;4.50;;;;;;;10.69;71.12;98904.81;4807261;29;20062;-77
2023/06/01 03:20:48;;;;;;;4.13;3.47;;;;;;;10.83;69.99;98917.00;4822267;29;20056;-75
2023/06/01 03:23:15;;;;;;;8.23;3.70;;;;;;;10.91;69.73;98914.53;4821427;29;20045;-76
2023/06/01 03:26:06;;;;;;;4.97;3.63;;;;;;;11.11;69.34;98900.34;4809343;29;20041;-76
2023/06/01 03:28:32;;;;;;;6.03;4.25;;;;;;;11.16;69.33;98898.13;4824987;29;20056;-78
2023/06/01 03:30:57;;;;;;;8.80;3.78;;;;;;;11.29;68.76;98906.75;4793732;29;20508;-77
2023/06/01 03:33:24;;;;;;;6.20;3.28;;;;;;;11.44;68.40;98903.75;4823604;29;20049;-76
2023/06/01 03:35:59;;;;;;;4.63;3.50;;;;;;;11.62;68.26;98926.19;4843343;29;20420;-75
2023/06/01 03:38:28;;;;;;;8.80;4.25;;;;;;;11.70;66.78;98907.66;4812434;29;20057;-76
2023/06/01 03:40:54;;;;;;;6.25;3.63;;;;;;;11.81;67.16;98899.59;4809946;29;20608;-76
2023/06/01 03:43:21;;;;;;;11.93;4.57;;;;;;;11.89;66.59;98913.09;4808592;29;20060;-74
2023/06/01 03:45:47;;;;;;;7.13;3.92;;;;;;;11.98;66.28;98900.75;4811145;29;20382;-75
2023/06/01 03:48:17;;;;;;;12.68;4.70;;;;;;;12.07;66.92;98905.28;4813453;29;20060;-73
2023/06/01 03:50:46;;;;;;;9.63;4.25;;;;;;;12.12;66.07;98923.56;4828733;29;20053;-74
2023/06/01 03:53:12;;;;;;;8.18;3.88;;;;;;;12.18;66.52;98918.53;4813606;29;20080;-75
2023/06/01 03:55:38;;;;;;;13.07;3.95;;;;;;;12.30;66.14;98904.03;4813339;29;20073;-75
2023/06/01 04:01:23;;;;;;;6.85;3.53;;;;;;;12.66;65.41;98902.53;4813036;29;20053;-73
2023/06/01 04:03:50;;;;;;;8.30;3.90;;;;;;;12.65;64.38;98900.84;4813108;29;20057;-74
2023/06/01 04:06:17;;;;;;;7.25;4.22;;;;;;;12.66;64.41;98907.03;4812690;29;20509;-76
2023/06/01 04:08:50;;;;;;;14.02;4.53;;;;;;;12.81;63.83;98899.44;4827596;29;20049;-75
2023/06/01 04:11:18;;;;;;;4.38;3.33;;;;;;;12.92;63.67;98901.97;4812745;29;20054;-75
2023/06/01 04:13:44;;;;;;;4.82;3.78;;;;;;;13.05;62.84;98907.88;4828034;29;20068;-74
2023/06/01 04:16:11;;;;;;;14.57;5.53;;;;;;;13.16;62.57;98888.16;4812530;29;20460;-76
2023/06/01 04:18:38;;;;;;;11.93;4.32;;;;;;;13.29;62.45;98873.47;4828487;29;20057;-74
2023/06/01 04:21:04;;;;;;;8.00;4.60;;;;;;;13.34;62.10;98903.31;4812447;29;20049;-76
2023/06/01 04:23:30;;;;;;;7.38;4.13;;;;;;;13.52;62.04;98884.66;4828020;29;20045;-75
2023/06/01 04:25:59;;;;;;;11.20;4.32;;;;;;;13.70;61.17;98903.47;4826555;29;20045;-74
2023/06/01 04:28:26;;;;;;;12.50;4.90;;;;;;;13.80;60.62;98904.28;4826072;29;20076;-74
2023/06/01 04:31:20;;;;;;;5.93;3.90;;;;;;;13.95;60.01;98881.38;4825717;29;20049;-75
2023/06/01 04:33:52;;;;;;;6.47;3.90;;;;;;;14.07;59.62;98896.25;4825783;29;20827;-74
2023/06/01 04:36:29;;;;;;;9.13;4.72;;;;;;;14.30;59.39;98885.94;4824435;29;20073;-74
2023/06/01 04:39:07;;;;;;;10.50;4.55;;;;;;;14.44;58.36;98881.94;4812165;29;20057;-75
2023/06/01 04:41:38;;;;;;;10.32;5.43;;;;;;;14.66;57.40;98868.06;4841700;29;20049;-75
2023/06/01 04:44:06;;;;;;;7.32;3.90;;;;;;;15.00;57.23;98868.19;4811653;29;20429;-76
2023/06/01 04:46:33;;;;;;;7.85;4.35;;;;;;;15.33;57.04;98869.25;4825463;29;20409;-76
2023/06/01 04:49:00;;;;;;;7.45;4.68;;;;;;;15.64;55.19;98877.66;4825407;29;20064;-75
2023/06/01 04:51:29;;;;;;;8.15;4.47;;;;;;;15.91;54.94;98880.13;4825313;29;20050;-75
2023/06/01 04:53:56;;;;;;;15.32;4.40;;;;;;;16.24;54.86;98881.09;4825428;29;20056;-76
2023/06/01 04:57:13;;;;;;;9.77;4.80;;;;;;;16.67;53.16;98865.72;4824514;29;20049;-76
2023/06/01 05:00:12;;;;;;;7.20;4.47;;;;;;;16.93;53.33;98861.00;4826438;29;20413;-76
2023/06/01 05:02:40;;;;;;;7.95;3.92;;;;;;;17.08;52.78;98863.03;4825023;29;20073;-77
2023/06/01 05:05:07;;;;;;;5.90;4.25;;;;;;;17.11;52.16;98860.84;4825509;29;20050;-77
2023/06/01 05:07:34;;;;;;;6.32;3.78;;;;;;;17.19;52.41;98886.91;4825058;29;20057;-75
2023/06/01 05:10:26;;;;;;;6.93;4.40;;;;;;;17.62;52.30;98866.78;4825218;29;20418;-76
2023/06/01 05:12:54;;;;;;;7.30;4.10;;;;;;;17.75;50.20;98873.34;4825361;29;20052;-76
2023/06/01 05:15:24;;;;;;;12.20;5.03;;;;;;;17.93;50.03;98886.59;4825874;29;20068;-74
2023/06/01 05:17:53;;;;;;;8.50;4.72;;;;;;;18.08;49.56;98857.88;4840084;29;20389;-74
2023/06/01 05:20:22;;;;;;;8.95;4.68;;;;;;;18.33;48.84;98861.28;4809861;29;20060;-77
2023/06/01 05:25:44;;;;;;;5.82;4.03;;;;;;;18.35;48.67;98853.84;4825154;29;20056;-76
2023/06/01 05:28:10;;;;;;;5.18;3.50;;;;;;;18.44;48.57;98839.28;4809921;29;20061;-76
2023/06/01 05:30:38;;;;;;;20.05;4.55;;;;;;;18.62;48.24;98855.22;4824972;29;20042;-76
2023/06/01 05:33:05;;;;;;;5.35;3.22;;;;;;;18.95;48.18;98854.97;4825182;29;20068;-77
2023/06/01 05:35:30;;;;;;;10.32;4.35;;;;;;;19.10;46.84;98843.16;4825491;29;20071;-76
2023/06/01 05:37:59;;;;;;;6.53;3.60;;;;;;;19.37;47.10;98851.69;4825477;29;20060;-76
2023/06/01 05:40:26;;;;;;;8.40;4.03;;;;;;;19.58;46.51;98841.84;4841505;29;20056;-76
2023/06/01 05:42:52;;;;;;;6.43;3.70;;;;;;;19.84;45.66;98846.78;4842221;29;20057;-73
2023/06/01 05:48:14;;;;;;;6.43;3.95;;;;;;;20.32;44.70;98855.25;4826603;29;20057;-75
2023/06/01 05:50:42;;;;;;;7.00;3.70;;;;;;;20.40;44.45;98873.31;4826909;29;20060;-74
2023/06/01 05:53:13;;;;;;;8.00;3.78;;;;;;;20.57;44.13;98853.06;4810917;29;20402;-73
2023/06/01 05:55:42;;;;;;;8.10;3.22;;;;;;;21.06;43.89;98855.00;4826828;29;20053;-74
2023/06/01 05:58:08;;;;;;;9.30;3.47;;;;;;;21.30;42.83;98844.59;4826806;29;20045;-74
2023/06/01 06:00:35;;;;;;;9.30;3.90;;;;;;;21.59;42.28;98859.78;4809777;29;20446;-75
2023/06/01 06:03:06;;;;;;;8.30;3.88;;;;;;;22.13;41.63;98850.06;4824514;29;20049;-74
2023/06/01 06:05:31;;;;;;;9.75;4.30;;;;;;;22.57;40.56;98830.59;4820590;29;20466;-74
2023/06/01 06:07:57;;;;;;;7.57;4.38;;;;;;;23.01;39.59;98838.22;4806282;29;20057;-74
2023/06/01 06:10:22;;;;;;;6.05;3.83;;;;;;;23.56;39.27;98836.94;4806822;29;20053;-76
2023/06/01 06:12:48;;;;;;;6.97;3.97;;;;;;;24.12;38.42;98848.06;4807225;29;20606;-75
2023/06/01 06:15:19;;;;;;;6.30;4.50;;;;;;;24.56;37.64;98860.03;4790519;29;20429;-74
2023/06/01 06:18:10;;;;;;;8.68;5.28;;;;;;;25.25;35.69;98840.06;4825139;29;20052;-73
2023/06/01 06:20:38;;;;;;;3.58;3.20;;;;;;;25.41;34.82;98835.91;4824143;29;20497;-76
2023/06/01 06:23:04;;;;;;;8.68;3.55;;;;;;;25.88;34.53;98828.94;4824389;29;20041;-74
2023/06/01 06:25:29;;;;;;;7.55;3.97;;;;;;;26.59;33.85;98804.50;4824328;29;20042;-75
2023/06/01 06:27:56;;;;;;;6.35;3.45;;;;;;;26.89;32.12;98826.31;4824243;29;20516;-76
2023/06/01 06:30:24;;;;;;;8.25;4.25;;;;;;;26.96;32.46;98850.88;4808917;29;20067;-76
2023/06/01 06:32:50;;;;;;;9.05;3.65;;;;;;;27.11;31.63;98821.97;4825445;29;20045;-76
2023/06/01 06:35:20;;;;;;;4.50;3.10;;;;;;;27.23;31.04;98810.22;4824119;29;20069;-76
2023/06/01 06:37:47;;;;;;;8.82;3.67;;;;;;;27.10;30.97;98820.31;4825038;29;20074;-75
2023/06/01 06:40:15;;;;;;;5.00;2.80;;;;;;;27.24;31.15;98818.19;4824196;29;20049;-75
2023/06/01 06:42:49;;;;;;;5.05;3.20;;;;;;;27.65;30.67;98810.97;4823600;29;20048;-73
2023/06/01 06:45:14;;;;;;;2.90;2.53;;;;;;;28.26;30.01;98802.16;4824121;29;20049;-76
2023/06/01 06:50:30;;;;;;;4.82;3.33;;;;;;;29.56;29.40;98785.50;4824567;29;20045;-75
2023/06/01 06:52:56;;;;;;;3.63;3.22;;;;;;;29.15;28.59;98777.69;4824652;29;20041;-75
2023/06/01 06:55:23;;;;;;;6.60;3.33;;;;;;;29.33;28.42;98795.81;4823103;29;20060;-75
2023/06/01 06:57:48;;;;;;;5.13;3.50;;;;;;;29.36;28.03;98792.56;4819626;29;20068;-74
2023/06/01 07:00:26;;;;;;;4.68;3.30;;;;;;;29.77;27.44;98797.59;4806658;29;20513;-75
2023/06/01 07:02:56;;;;;;;5.68;3.38;;;;;;;30.14;27.20;98780.47;4790880;29;20064;-75
2023/06/01 07:05:23;;;;;;;6.88;3.28;;;;;;;30.77;26.83;98796.31;4804896;29;20120;-76
2023/06/01 07:08:17;;;;;;;4.45;3.25;;;;;;;30.92;27.20;98776.38;4806083;29;20093;-75
2023/06/01 07:10:45;;;;;;;6.40;3.63;;;;;;;30.99;26.36;98776.97;4817536;29;20493;-74
2023/06/01 07:13:13;;;;;;;4.45;3.42;;;;;;;31.26;26.34;98765.94;4807667;29;20058;-76
2023/06/01 07:15:38;;;;;;;5.13;4.18;;;;;;;31.87;26.15;98760.78;4804833;29;20057;-72
2023/06/01 07:18:05;;;;;;;7.47;3.80;;;;;;;32.12;25.19;98771.91;4822483;29;20909;-74
2023/06/01 07:20:31;;;;;;;3.58;3.28;;;;;;;32.52;24.84;98746.38;4823580;29;20045;-75
2023/06/01 07:23:00;;;;;;;4.90;3.30;;;;;;;32.77;24.15;98768.50;4807388;29;20057;-73
2023/06/01 07:25:26;;;;;;;5.57;3.67;;;;;;;33.11;24.44;98765.19;4823284;29;20040;-73
2023/06/01 07:27:56;;;;;;;5.97;3.53;;;;;;;33.30;23.80;98758.00;4824157;29;20061;-75
2023/06/01 07:30:25;;;;;;;4.35;3.80;;;;;;;33.30;23.52;98746.97;4822548;29;20053;-74
2023/06/01 07:32:50;;;;;;;4.85;3.20;;;;;;;33.25;23.37;98749.75;4808033;29;20084;-73
2023/06/01 07:35:17;;;;;;;9.68;3.88;;;;;;;33.25;23.54;98747.00;4839280;29;20421;-77
2023/06/01 07:37:49;;;;;;;7.15;3.90;;;;;;;33.78;23.36;98750.19;4809407;29;20061;-76
2023/06/01 07:40:15;;;;;;;4.05;3.65;;;;;;;33.86;22.88;98746.84;4823360;29;20045;-74
2023/06/01 07:42:41;;;;;;;5.90;3.92;;;;;;;34.64;22.41;98735.91;4839310;29;20073;-75
2023/06/01 07:45:08;;;;;;;5.78;3.95;;;;;;;35.30;21.55;98727.91;4823860;29;20068;-75
2023/06/01 07:47:34;;;;;;;8.27;4.35;;;;;;;35.14;21.48;98731.91;4809322;29;20505;-76
2023/06/01 07:50:30;;;;;;;5.45;4.30;;;;;;;35.34;21.37;98735.59;4837485;29;20068;-74
2023/06/01 07:53:21;;;;;;;7.07;5.85;;;;;;;35.41;21.24;98714.75;4823224;29;20042;-73
2023/06/01 07:55:51;;;;;;;11.85;5.55;;;;;;;35.00;21.21;98719.84;4807325;29;20049;-73
2023/06/01 07:58:41;;;;;;;4.25;3.85;;;;;;;35.13;21.28;98732.19;4824097;29;20393;-73
2023/06/01 08:01:07;;;;;;;5.93;3.50;;;;;;;35.15;21.24;98749.34;4807584;29;20049;-73
2023/06/01 08:03:33;;;;;;;6.38;4.28;;;;;;;35.45;21.58;98726.06;4822320;29;20523;-72
2023/06/01 08:06:07;;;;;;;5.43;4.15;;;;;;;35.80;20.82;98745.09;4823953;29;20041;-73
2023/06/01 08:08:33;;;;;;;5.95;4.00;;;;;;;35.52;20.89;98732.94;4823735;29;20045;-74
2023/06/01 08:11:00;;;;;;;5.28;3.90;;;;;;;35.84;21.08;98740.63;4824129;29;20056;-73
2023/06/01 08:13:25;;;;;;;6.90;4.10;;;;;;;36.05;20.35;98713.44;4832184;29;20045;-74
2023/06/01 08:18:44;;;;;;;8.30;4.55;;;;;;;37.28;20.16;98724.31;4830458;29;20064;-73
2023/06/01 08:21:13;;;;;;;5.20;4.70;;;;;;;37.25;19.22;98722.16;4824466;29;20045;-74
2023/06/01 08:24:05;;;;;;;6.25;4.50;;;;;;;37.11;19.36;98713.75;4825156;29;20056;-74
2023/06/01 08:26:32;;;;;;;7.43;5.03;;;;;;;36.96;19.02;98723.19;4808094;29;20049;-78
2023/06/01 08:28:57;;;;;;;10.20;6.22;;;;;;;37.10;19.25;98709.31;4824026;29;20056;-75
2023/06/01 08:31:25;;;;;;;9.13;5.18;;;;;;;37.24;18.66;98723.28;4823393;29;20513;-76
2023/06/01 08:39:36;;;;;;;6.47;5.10;;;;;;;39.33;18.01;98717.47;4825526;29;20552;-72
2023/06/01 08:42:18;;;;;;;5.43;4.93;;;;;;;39.46;17.71;98694.28;4841194;29;20045;-76
2023/06/01 08:44:44;;;;;;;5.35;4.72;;;;;;;37.66;17.88;98709.13;4825512;29;20056;-74
2023/06/01 08:47:13;;;;;;;6.25;4.78;;;;;;;36.85;18.25;98699.47;4826722;29;20056;-74
2023/06/01 08:49:44;;;;;;;7.47;4.47;;;;;;;37.10;19.04;98717.66;4825173;29;20053;-73
2023/06/01 08:52:13;;;;;;;5.25;4.65;;;;;;;37.29;18.81;98687.03;4826978;29;20049;-73
2023/06/01 08:54:42;;;;;;;4.97;4.47;;;;;;;38.09;18.29;98708.81;4825073;29;20863;-76
2023/06/01 08:57:32;;;;;;;5.93;5.10;;;;;;;38.85;17.98;98702.25;4824848;29;20062;-75
2023/06/01 08:59:59;;;;;;;9.52;5.25;;;;;;;38.96;17.63;98682.47;4826350;29;20068;-75
2023/06/01 09:02:28;;;;;;;7.38;4.93;;;;;;;38.66;17.40;98647.88;4840464;29;20056;-73
2023/06/01 09:07:51;;;;;;;6.25;5.53;;;;;;;38.64;17.18;98695.53;4824593;29;20053;-72
2023/06/01 09:11:06;;;;;;;6.28;5.53;;;;;;;39.55;16.42;98676.44;4824656;29;20544;-73
2023/06/01 09:13:37;;;;;;;6.22;5.35;;;;;;;39.71;16.72;98689.94;4840583;29;20049;-73
2023/06/01 09:16:02;;;;;;;6.35;4.80;;;;;;;38.83;16.06;98670.25;4826097;29;20056;-74
2023/06/01 09:18:28;;;;;;;11.05;5.90;;;;;;;38.93;16.60;98675.59;4809606;29;20428;-74
2023/06/01 09:21:13;;;;;;;6.25;5.40;;;;;;;39.71;16.45;98671.22;4840037;29;20057;-74
2023/06/01 09:24:24;;;;;;;8.93;5.35;;;;;;;39.43;16.32;98673.44;4809436;29;20061;-74
2023/06/01 09:26:52;;;;;;;8.68;5.80;;;;;;;38.92;16.67;98671.16;4826630;29;20500;-75
2023/06/01 09:29:18;;;;;;;5.28;4.88;;;;;;;39.36;16.03;98655.50;4828750;29;20881;-73
2023/06/01 09:31:49;;;;;;;8.90;5.90;;;;;;;40.41;16.00;98663.81;4829442;29;20053;-74
2023/06/01 09:34:20;;;;;;;6.90;5.55;;;;;;;39.76;15.67;98668.28;4831272;29;20053;-74
2023/06/01 09:36:54;;;;;;;7.90;5.68;;;;;;;38.79;16.27;98655.34;4843250;29;20061;-75
2023/06/01 09:39:21;;;;;;;10.60;6.25;;;;;;;38.89;16.34;98663.44;4826439;29;20086;-75
2023/06/01 09:41:52;;;;;;;8.98;5.60;;;;;;;39.65;16.02;98655.78;4841140;29;20408;-75
2023/06/01 09:44:40;;;;;;;7.78;5.90;;;;;;;40.90;15.38;98656.84;4824398;29;20456;-74
2023/06/01 09:47:12;;;;;;;9.05;5.90;;;;;;;39.96;14.99;98657.69;4824986;29;20052;-75
2023/06/01 09:49:41;;;;;;;15.13;6.27;;;;;;;39.84;15.36;98661.09;4821418;29;20465;-73
2023/06/01 09:52:09;;;;;;;6.93;6.18;;;;;;;40.57;15.14;98657.38;4807652;29;20065;-74
2023/06/01 09:54:42;;;;;;;6.25;5.75;;;;;;;40.32;15.41;98644.25;4806192;29;20057;-74
2023/06/01 09:57:08;;;;;;;7.10;6.15;;;;;;;40.43;15.19;98642.75;4806015;29;20053;-75
2023/06/01 09:59:44;;;;;;;15.57;6.20;;;;;;;41.38;15.04;98653.75;4806901;29;20402;-75
2023/06/01 10:02:18;;;;;;;6.50;5.85;;;;;;;42.02;14.27;98622.78;4805835;29;20049;-73
2023/06/01 10:04:59;;;;;;;7.03;6.40;;;;;;;42.30;14.20;98643.50;4810591;29;20049;-74
2023/06/01 10:07:28;;;;;;;6.78;6.28;;;;;;;41.82;13.59;98652.41;4823944;29;20437;-73
2023/06/01 10:12:48;;;;;;;8.13;7.43;;;;;;;42.58;13.83;98635.34;4790340;29;20064;-71
2023/06/01 10:15:16;;;;;;;8.65;7.15;;;;;;;42.94;13.38;98648.69;4820962;29;20057;-72
2023/06/01 10:17:43;;;;;;;10.70;8.00;;;;;;;42.48;13.45;98644.19;4803990;29;20088;-72
2023/06/01 10:20:11;;;;;;;7.45;6.95;;;;;;;42.25;13.73;98648.47;4821661;29;20060;-71
2023/06/01 10:22:41;;;;;;;8.10;7.40;;;;;;;42.16;13.39;98648.56;4821391;29;20049;-77
2023/06/01 10:25:10;;;;;;;8.02;7.13;;;;;;;41.75;13.90;98642.91;4820350;29;20056;-76
2023/06/01 10:27:43;;;;;;;7.90;7.22;;;;;;;41.79;13.91;98632.66;4807284;29;20045;-77
2023/06/01 10:30:34;;;;;;;8.07;5.60;;;;;;;40.82;14.95;98622.19;4817761;29;20046;-76
2023/06/01 10:38:45;;;;;;;4.75;4.25;;;;;;;31.90;20.13;98645.28;4821781;29;20049;-76
2023/06/01 10:41:31;;;;;;;5.75;4.30;;;;;;;30.92;20.90;98644.25;4802246;29;20499;-77
2023/06/01 10:49:50;;;;;;;4.97;3.40;;;;;;;27.82;25.01;98631.94;4823110;29;20050;-77
2023/06/01 10:52:30;;;;;;;5.05;3.55;;;;;;;27.52;24.70;98635.97;4806166;29;20054;-77
2023/06/01 10:55:24;;;;;;;7.43;4.65;;;;;;;26.77;25.11;98629.38;4806102;29;20049;-76
2023/06/01 10:57:50;;;;;;;5.72;3.88;;;;;;;26.39;25.34;98643.53;4819193;29;20053;-75
2023/06/01 11:00:28;;;;;;;5.47;3.58;;;;;;;26.23;25.66;98638.72;4817522;29;20057;-75
2023/06/01 11:02:59;;;;;;;9.10;3.92;;;;;;;25.88;26.60;98643.25;4794420;29;20049;-74
2023/06/01 11:05:47;;;;;;;5.07;3.20;;;;;;;26.04;26.19;98646.16;4805263;29;20509;-77
2023/06/01 11:08:28;;;;;;;5.45;3.78;;;;;;;25.28;27.19;98640.47;4824874;29;20076;-77
2023/06/01 11:11:02;;;;;;;5.38;3.67;;;;;;;24.81;27.88;98640.09;4836031;29;20053;-76
2023/06/01 11:13:35;;;;;;;4.30;3.38;;;;;;;24.58;29.07;98640.75;4821743;29;20049;-76
2023/06/01 11:16:29;;;;;;;4.30;3.30;;;;;;;24.67;28.94;98643.19;4810078;29;20053;-76
2023/06/01 11:19:00;;;;;;;4.60;3.58;;;;;;;24.34;28.74;98644.31;4805664;29;20060;-75
2023/06/01 11:21:35;;;;;;;5.50;3.30;;;;;;;24.10;29.21;98642.38;4806022;29;20062;-74
2023/06/01 11:26:57;;;;;;;5.68;3.60;;;;;;;23.42;30.02;98642.09;4805605;29;20038;-75
2023/06/01 11:29:25;;;;;;;7.22;2.88;;;;;;;23.34;31.29;98642.34;4821221;29;20456;-75
2023/06/01 11:31:59;;;;;;;6.45;3.05;;;;;;;23.27;30.87;98631.47;4819786;29;20058;-69
2023/06/01 11:34:38;;;;;;;5.57;3.10;;;;;;;23.40;31.61;98636.88;4815128;29;20049;-72
2023/06/01 11:37:25;;;;;;;6.97;3.90;;;;;;;23.40;31.22;98642.31;4813225;29;20061;-70
2023/06/01 11:39:50;;;;;;;8.23;4.03;;;;;;;23.28;30.59;98633.16;4822580;29;20054;-74
2023/06/01 11:42:40;;;;;;;4.00;3.00;;;;;;;23.16;30.97;98629.44;4807739;29;20409;-73
2023/06/01 11:45:06;;;;;;;9.07;3.50;;;;;;;23.18;31.01;98632.78;4834374;29;20045;-73
2023/06/01 11:50:26;;;;;;;4.13;3.40;;;;;;;23.24;31.67;98637.38;4805789;29;20058;-71
2023/06/01 11:52:52;;;;;;;9.38;4.05;;;;;;;23.26;31.77;98632.53;4818369;29;20076;-73
2023/06/01 11:55:20;;;;;;;7.35;3.38;;;;;;;23.26;31.50;98635.25;4806329;29;20049;-73
2023/06/01 11:57:46;;;;;;;6.38;3.60;;;;;;;23.17;31.42;98647.44;4819502;29;20038;-69
2023/06/01 12:00:13;;;;;;;5.18;3.38;;;;;;;23.00;32.06;98629.94;4804472;29;20050;-73
2023/06/01 12:02:39;;;;;;;5.32;3.60;;;;;;;22.93;31.92;98634.53;4806134;29;20060;-75
2023/06/01 12:05:09;;;;;;;4.50;3.20;;;;;;;22.85;32.50;98634.75;4823996;29;20053;-72
2023/06/01 12:07:44;;;;;;;4.60;3.03;;;;;;;22.72;33.09;98641.88;4825811;29;20049;-74
2023/06/01 12:10:19;;;;;;;6.60;3.22;;;;;;;22.69;32.64;98634.13;4812081;29;20050;-75
2023/06/01 12:12:47;;;;;;;6.22;3.15;;;;;;;22.55;33.18;98640.66;4826440;29;20596;-79
2023/06/01 12:15:37;;;;;;;8.60;3.15;;;;;;;22.54;33.96;98636.25;4809856;29;20058;-75
2023/06/01 12:18:06;;;;;;;3.78;3.15;;;;;;;22.59;33.10;98632.88;4814364;29;20540;-73
2023/06/01 12:20:41;;;;;;;3.75;3.20;;;;;;;22.68;33.25;98632.47;4842635;29;20076;-74
2023/06/01 12:23:15;;;;;;;3.95;3.00;;;;;;;22.69;33.62;98636.84;4811158;29;20058;-73
2023/06/01 12:25:58;;;;;;;4.32;3.25;;;;;;;22.83;32.83;98655.88;4812227;29;20426;-73
2023/06/01 12:28:35;;;;;;;6.35;3.80;;;;;;;22.59;32.41;98632.88;4827254;29;20408;-72
2023/06/01 12:31:29;;;;;;;5.70;3.70;;;;;;;22.47;32.76;98635.41;4825513;29;20060;-72
2023/06/01 12:36:50;;;;;;;4.75;3.42;;;;;;;22.20;32.96;98622.91;4825923;29;20050;-68
2023/06/01 12:39:42;;;;;;;7.57;3.78;;;;;;;22.29;33.42;98624.34;4819726;29;20421;-66
2023/06/01 12:42:11;;;;;;;7.80;3.50;;;;;;;22.17;33.62;98631.44;4808647;29;20351;-66
2023/06/01 12:44:39;;;;;;;5.18;3.15;;;;;;;22.20;33.44;98647.34;4810899;29;20050;-66
2023/06/01 12:47:07;;;;;;;7.63;3.20;;;;;;;22.06;33.56;98622.06;4810881;29;20441;-66
2023/06/01 12:49:33;;;;;;;7.05;3.47;;;;;;;22.08;34.01;98636.25;4818059;29;20456;-66